Time;durP1;ratioP1;P1;durP2;ratioP2;P2;SDS_P1;SDS_P2;PMS_P1;PMS_P2;Temp;Humidity;BMP_temperature;BMP_pressure;BME280_temperature;BME280_humidity;BME280_pressure;Samples;Min_cycle;Max_cycle;Signal;HPM_P1;HPM_P2
2022/07/09 00:01:37;;;;;;;12.70;4.60;;;;;;;13.65;87.21;99498.44;1507205;78;21553;-79
2022/07/09 00:03:38;;;;;;;;;;;;;;;13.66;87.22;99501.97;1508508;78;20980;-79
2022/07/09 00:05:39;;;;;;;14.23;4.78;;;;;;;13.67;87.25;99501.88;1476494;80;20130;-79
2022/07/09 00:07:41;;;;;;;11.15;4.47;;;;;;;13.48;87.20;99472.00;1505185;78;21492;-78
2022/07/09 00:09:42;;;;;;;16.20;4.83;;;;;;;13.66;87.22;99501.48;1505562;78;20987;-79
2022/07/09 00:11:43;;;;;;;13.83;5.10;;;;;;;13.66;87.23;99497.51;1477092;79;20941;-80
2022/07/09 00:13:46;;;;;;;17.30;5.78;;;;;;;13.68;87.25;99490.80;1507043;78;20980;-79
2022/07/09 00:15:47;;;;;;;8.30;4.50;;;;;;;13.68;87.25;99495.66;1505328;78;21010;-79
2022/07/09 00:17:48;;;;;;;;;;;;;;;13.67;87.22;99488.63;1508282;78;21055;-78
2022/07/09 00:19:49;;;;;;;14.63;4.08;;;;;;;13.68;87.27;99490.35;1476053;80;20577;-78
2022/07/09 00:21:50;;;;;;;8.48;5.10;;;;;;;13.67;87.24;99489.95;1476169;80;20980;-78
2022/07/09 00:23:51;;;;;;;19.98;4.58;;;;;;;13.67;87.23;99488.63;1475961;80;21064;-79
2022/07/09 00:25:52;;;;;;;10.65;4.42;;;;;;;13.68;87.24;99495.66;1504247;78;21015;-78
2022/07/09 00:27:53;;;;;;;16.90;5.25;;;;;;;13.67;87.22;99491.28;1477068;80;21010;-79
2022/07/09 00:29:55;;;;;;;14.20;4.15;;;;;;;13.66;87.23;99494.86;1485549;78;21018;-78
2022/07/09 00:31:56;;;;;;;8.65;4.22;;;;;;;13.66;87.21;99494.02;1503937;77;21070;-78
2022/07/09 00:33:57;;;;;;;16.15;5.05;;;;;;;13.66;87.23;99491.37;1505850;78;21018;-79
2022/07/09 00:36:00;;;;;;;;;;;;;;;13.66;87.24;99497.51;1508794;78;21471;-79
2022/07/09 00:38:01;;;;;;;8.48;4.25;;;;;;;13.66;87.24;99488.23;1505132;78;20125;-79
2022/07/09 00:40:03;;;;;;;6.47;4.17;;;;;;;13.64;87.24;99495.42;1502627;78;21065;-79
2022/07/09 00:42:05;;;;;;;20.88;5.72;;;;;;;13.62;87.26;99493.31;1477493;79;21004;-79
2022/07/09 00:44:06;;;;;;;10.18;4.17;;;;;;;13.62;87.22;99500.81;1505310;78;21051;-79
2022/07/09 00:46:07;;;;;;;11.53;4.03;;;;;;;13.63;87.25;99499.00;1506466;78;20999;-79
2022/07/09 00:48:08;;;;;;;;;;;;;;;13.64;87.27;99499.40;1508570;78;21020;-79
2022/07/09 00:50:09;;;;;;;9.25;4.17;;;;;;;13.63;87.30;99489.73;1505456;78;20156;-79
2022/07/09 00:52:14;;;;;;;15.00;4.70;;;;;;;13.62;87.31;99494.19;1504252;78;21082;-78
2022/07/09 00:54:15;;;;;;;16.10;4.80;;;;;;;13.63;87.32;99495.88;1505868;78;21075;-78
2022/07/09 00:56:16;;;;;;;15.68;5.53;;;;;;;13.65;87.32;99501.09;1505941;78;21007;-77
2022/07/09 00:58:20;;;;;;;13.85;4.03;;;;;;;13.66;87.35;99490.89;1504267;78;20980;-78
2022/07/09 01:00:22;;;;;;;10.78;4.28;;;;;;;13.67;87.35;99489.95;1506515;78;21047;-79
2022/07/09 01:02:25;;;;;;;15.25;4.62;;;;;;;13.68;87.36;99490.80;1506875;78;21043;-79
2022/07/09 01:04:26;;;;;;;18.17;4.37;;;;;;;13.68;87.30;99491.68;1505553;78;21398;-80
2022/07/09 01:06:27;;;;;;;13.70;3.77;;;;;;;13.67;87.30;99485.14;1504911;78;21019;-78
2022/07/09 01:08:28;;;;;;;;;;;;;;;13.67;87.28;99487.79;1507403;78;21309;-79
2022/07/09 01:10:29;;;;;;;13.75;4.60;;;;;;;13.64;87.32;99484.83;1475674;79;20240;-79
2022/07/09 01:12:32;;;;;;;9.28;4.22;;;;;;;13.63;87.32;99489.73;1484879;78;21013;-79
2022/07/09 01:14:33;;;;;;;14.95;3.75;;;;;;;13.63;87.33;99489.73;1483377;79;21031;-80
2022/07/09 01:16:37;;;;;;;13.95;4.70;;;;;;;13.63;87.30;99491.05;1482222;79;21558;-80
2022/07/09 01:18:38;;;;;;;10.48;4.15;;;;;;;13.62;87.29;99482.72;1482433;79;21558;-78
2022/07/09 01:20:39;;;;;;;17.12;4.22;;;;;;;13.62;87.30;99485.36;1482988;79;21601;-79
2022/07/09 01:22:41;;;;;;;18.92;4.05;;;;;;;13.61;87.30;99484.52;1482103;79;21012;-79
2022/07/09 01:24:42;;;;;;;23.07;4.10;;;;;;;13.62;87.31;99484.04;1480020;80;21078;-80
2022/07/09 01:26:43;;;;;;;;;;;;;;;13.62;87.30;99484.04;1485021;78;21507;-78
2022/07/09 01:28:44;;;;;;;10.63;3.58;;;;;;;13.62;87.35;99485.36;1482186;80;20232;-78
2022/07/09 01:30:46;;;;;;;12.55;3.45;;;;;;;13.53;87.32;99472.63;1484214;79;20980;-80
2022/07/09 01:32:48;;;;;;;6.33;3.35;;;;;;;13.59;87.32;99478.91;1467894;80;21078;-78
2022/07/09 01:34:49;;;;;;;13.30;4.97;;;;;;;13.58;87.32;99474.09;1482576;79;21072;-79
2022/07/09 01:36:50;;;;;;;11.28;4.40;;;;;;;13.59;87.34;99470.48;1483135;80;20969;-79
2022/07/09 01:38:51;;;;;;;11.33;4.05;;;;;;;13.59;87.33;99466.99;1482767;78;20976;-79
2022/07/09 01:40:52;;;;;;;12.30;4.25;;;;;;;13.58;87.34;99462.63;1482071;79;20996;-79
2022/07/09 01:42:54;;;;;;;;;;;;;;;13.59;87.34;99466.99;1484690;80;21004;-79
2022/07/09 01:44:57;;;;;;;8.70;4.10;;;;;;;13.58;87.35;99467.92;1482955;79;20125;-79
2022/07/09 01:46:58;;;;;;;10.98;3.77;;;;;;;13.55;87.35;99466.77;1480514;79;20999;-80
2022/07/09 01:48:59;;;;;;;8.03;4.12;;;;;;;13.55;87.32;99466.77;1483448;78;21121;-79
2022/07/09 01:51:00;;;;;;;17.67;4.10;;;;;;;13.54;87.33;99471.66;1484066;80;20969;-80
2022/07/09 01:53:00;;;;;;;16.27;4.78;;;;;;;13.52;87.32;99464.28;1482769;80;21078;-78
2022/07/09 01:55:02;;;;;;;;;;;;;;;13.49;87.32;99466.63;1486213;79;21330;-79
2022/07/09 01:57:03;;;;;;;11.38;4.15;;;;;;;13.50;87.36;99456.88;1483112;80;20153;-79
2022/07/09 01:59:04;;;;;;;11.57;4.60;;;;;;;13.43;87.34;99453.23;1482595;79;20996;-79
2022/07/09 02:01:05;;;;;;;17.67;4.67;;;;;;;13.45;87.34;99455.32;1483367;79;21176;-78
2022/07/09 02:03:06;;;;;;;20.88;4.95;;;;;;;13.46;87.37;99450.91;1482855;80;20984;-79
2022/07/09 02:05:07;;;;;;;;;;;;;;;13.44;87.37;99452.76;1485293;79;21409;-79
2022/07/09 02:07:08;;;;;;;8.98;4.45;;;;;;;13.42;87.39;99444.90;1482637;78;20130;-79
2022/07/09 02:09:09;;;;;;;;;;;;;;;13.40;87.39;99450.76;1485761;79;21559;-77
2022/07/09 02:11:10;;;;;;;17.77;6.42;;;;;;;13.40;87.42;99444.59;1481645;79;20122;-79
2022/07/09 02:13:12;;;;;;;;;;;;;;;13.37;87.40;99442.95;1486048;79;21015;-79
2022/07/09 02:15:13;;;;;;;;;;;;;;;13.37;87.42;99444.27;1484797;80;20137;-79
2022/07/09 02:17:14;;;;;;;13.32;5.15;;;;;;;13.34;87.45;99444.41;1481527;79;20082;-79
2022/07/09 02:19:15;;;;;;;;;;;;;;;13.33;87.48;99451.11;1486268;78;21027;-77
2022/07/09 02:21:16;;;;;;;16.20;5.50;;;;;;;13.32;87.50;99446.30;1483329;79;20429;-79
2022/07/09 02:23:16;;;;;;;20.80;5.50;;;;;;;13.31;87.48;99448.55;1481810;79;21071;-79
2022/07/09 02:25:18;;;;;;;25.68;5.92;;;;;;;13.30;87.47;99445.50;1482308;80;20976;-79
2022/07/09 02:27:19;;;;;;;21.17;5.42;;;;;;;13.30;87.49;99442.86;1483540;80;20969;-79
2022/07/09 02:29:20;;;;;;;12.07;5.12;;;;;;;13.28;87.47;99436.80;1483419;78;21728;-79
2022/07/09 02:31:21;;;;;;;;;;;;;;;13.29;87.50;99434.07;1484980;79;21032;-78
2022/07/09 02:33:22;;;;;;;14.98;5.42;;;;;;;13.29;87.53;99430.55;1482582;79;20171;-78
2022/07/09 02:35:23;;;;;;;12.13;5.75;;;;;;;13.26;87.56;99428.95;1482696;79;21064;-79
2022/07/09 02:37:24;;;;;;;;;;;;;;;13.27;87.54;99431.95;1483709;80;21087;-79
2022/07/09 02:39:27;;;;;;;20.37;5.70;;;;;;;13.27;87.60;99431.11;1482054;80;20157;-79
2022/07/09 02:41:27;;;;;;;16.15;5.72;;;;;;;13.26;87.60;99430.72;1481226;80;21034;-79
2022/07/09 02:43:28;;;;;;;17.85;6.40;;;;;;;13.28;87.61;99435.48;1469464;80;21504;-79
2022/07/09 02:45:29;;;;;;;;;;;;;;;13.22;87.60;99427.84;1484895;79;21004;-79
2022/07/09 02:47:30;;;;;;;16.00;5.53;;;;;;;13.28;87.46;99435.00;1482805;79;20499;-79
2022/07/09 02:49:31;;;;;;;14.38;6.37;;;;;;;13.28;87.46;99435.00;1483486;80;21734;-80
2022/07/09 02:51:32;;;;;;;;;;;;;;;13.28;87.63;99440.30;1486828;79;21023;-79
2022/07/09 02:53:33;;;;;;;15.05;6.03;;;;;;;13.29;87.65;99435.84;1482506;80;20141;-80
2022/07/09 02:55:34;;;;;;;19.52;6.33;;;;;;;13.26;87.64;99429.39;1480940;80;21003;-79
2022/07/09 02:57:35;;;;;;;18.30;6.20;;;;;;;13.27;87.62;99433.76;1483867;79;20967;-78
2022/07/09 02:59:35;;;;;;;;;;;;;;;13.28;87.62;99439.45;1485446;79;20973;-79
2022/07/09 03:01:36;;;;;;;15.45;5.62;;;;;;;13.27;87.65;99435.08;1470241;80;20195;-79
2022/07/09 03:03:37;;;;;;;;;;;;;;;13.25;87.63;99428.55;1465253;80;21038;-79
2022/07/09 03:05:38;;;;;;;13.53;5.87;;;;;;;13.25;87.65;99431.64;1481099;80;20165;-79
2022/07/09 03:07:39;;;;;;;23.25;5.47;;;;;;;13.24;87.65;99429.95;1483403;79;22183;-79
2022/07/09 03:09:40;;;;;;;14.07;5.28;;;;;;;13.25;87.64;99428.99;1483373;79;21305;-80
2022/07/09 03:11:41;;;;;;;14.43;5.47;;;;;;;13.25;87.65;99426.34;1481045;78;21032;-79
2022/07/09 03:13:42;;;;;;;;;;;;;;;13.26;87.65;99430.72;1484254;79;20984;-79
2022/07/09 03:15:43;;;;;;;15.15;6.20;;;;;;;13.26;87.68;99433.36;1481741;80;20097;-79
2022/07/09 03:17:45;;;;;;;15.08;6.37;;;;;;;13.25;87.68;99431.20;1482286;79;21503;-79
2022/07/09 03:19:46;;;;;;;13.40;5.90;;;;;;;13.26;87.68;99432.03;1482646;80;20999;-79
2022/07/09 03:21:48;;;;;;;13.32;5.87;;;;;;;13.27;87.68;99427.14;1481135;79;20993;-80
2022/07/09 03:23:49;;;;;;;18.85;5.97;;;;;;;13.27;87.71;99429.78;1481900;80;21031;-79
2022/07/09 03:25:52;;;;;;;13.05;6.58;;;;;;;13.28;87.72;99420.92;1482719;79;21031;-79
2022/07/09 03:27:53;;;;;;;19.92;7.00;;;;;;;13.28;87.69;99425.73;1482431;79;20988;-78
2022/07/09 03:29:54;;;;;;;14.50;5.90;;;;;;;13.29;87.72;99427.45;1481468;79;21270;-78
2022/07/09 03:31:55;;;;;;;18.05;6.95;;;;;;;13.31;87.72;99427.84;1480496;80;21587;-79
2022/07/09 03:33:56;;;;;;;18.98;6.42;;;;;;;13.30;87.68;99428.30;1469830;80;21028;-81
2022/07/09 03:35:57;;;;;;;;;;;;;;;13.31;87.73;99424.72;1485641;80;21079;-80
2022/07/09 03:37:58;;;;;;;18.50;5.87;;;;;;;13.31;87.76;99418.11;1483488;79;20117;-79
2022/07/09 03:39:59;;;;;;;14.87;6.12;;;;;;;13.30;87.78;99419.03;1483696;80;22188;-79
2022/07/09 03:42:00;;;;;;;16.95;5.42;;;;;;;13.31;87.76;99420.75;1482912;79;20970;-80
2022/07/09 03:44:01;;;;;;;10.43;6.33;;;;;;;13.33;87.80;99421.52;1470905;80;21079;-79
2022/07/09 03:46:04;;;;;;;15.08;6.10;;;;;;;13.33;87.77;99418.86;1483640;80;21000;-79
2022/07/09 03:48:06;;;;;;;22.22;6.53;;;;;;;13.34;87.78;99419.26;1482362;78;21040;-79
2022/07/09 03:50:09;;;;;;;13.38;6.47;;;;;;;13.35;87.77;99424.98;1480887;79;21023;-80
2022/07/09 03:52:11;;;;;;;14.90;6.03;;;;;;;13.38;87.81;99424.81;1483678;79;21959;-79
2022/07/09 03:54:12;;;;;;;18.57;6.92;;;;;;;13.40;87.83;99429.58;1480418;79;21027;-79
2022/07/09 03:56:13;;;;;;;;;;;;;;;13.43;87.84;99424.56;1483586;80;20992;-80
2022/07/09 03:58:14;;;;;;;10.45;5.95;;;;;;;13.45;87.89;99423.55;1483077;79;20123;-79
2022/07/09 04:00:16;;;;;;;14.15;6.83;;;;;;;13.46;87.87;99421.77;1483804;79;21039;-79
2022/07/09 04:02:17;;;;;;;13.98;6.00;;;;;;;13.49;87.87;99419.44;1481705;79;20969;-79
2022/07/09 04:04:18;;;;;;;12.80;6.00;;;;;;;13.51;87.81;99428.14;1458558;80;21055;-79
2022/07/09 04:06:20;;;;;;;;;;;;;;;13.53;87.81;99428.93;1485783;80;21456;-79
2022/07/09 04:08:21;;;;;;;18.02;5.37;;;;;;;13.54;87.81;99426.64;1480391;80;20137;-79
2022/07/09 04:10:22;;;;;;;12.20;5.15;;;;;;;13.53;87.76;99424.95;1482538;80;21047;-79
2022/07/09 04:12:23;;;;;;;14.25;5.62;;;;;;;13.54;87.77;99429.30;1490506;78;21066;-79
2022/07/09 04:14:24;;;;;;;23.32;5.22;;;;;;;13.55;87.74;99433.17;1504990;78;21007;-79
2022/07/09 04:16:27;;;;;;;;;;;;;;;13.55;87.72;99433.17;1509762;77;22119;-80
2022/07/09 04:18:29;;;;;;;11.88;5.70;;;;;;;13.56;87.78;99434.90;1506401;78;20649;-79
2022/07/09 04:20:30;;;;;;;14.50;5.22;;;;;;;13.56;87.76;99436.70;1476638;79;21527;-79
2022/07/09 04:22:32;;;;;;;10.10;5.12;;;;;;;13.58;87.76;99437.46;1475326;79;21008;-79
2022/07/09 04:24:33;;;;;;;12.03;5.35;;;;;;;13.54;87.78;99417.38;1478482;80;21546;-79
2022/07/09 04:26:34;;;;;;;;;;;;;;;13.62;87.78;99428.42;1480979;80;20996;-79
2022/07/09 04:28:38;;;;;;;13.45;5.12;;;;;;;13.63;87.79;99423.52;1478131;80;20512;-79
2022/07/09 04:30:40;;;;;;;9.58;4.70;;;;;;;13.65;87.79;99422.10;1479186;79;21227;-79
2022/07/09 04:32:41;;;;;;;8.15;4.50;;;;;;;13.66;87.74;99419.84;1477489;79;21064;-79
2022/07/09 04:34:42;;;;;;;16.62;4.62;;;;;;;13.65;87.68;99426.92;1476236;80;21370;-79
2022/07/09 04:36:44;;;;;;;11.55;4.42;;;;;;;13.64;87.62;99425.23;1478400;79;20988;-78
2022/07/09 04:38:45;;;;;;;9.25;4.20;;;;;;;13.63;87.62;99420.86;1477137;79;21063;-79
2022/07/09 04:40:48;;;;;;;13.20;4.75;;;;;;;13.65;87.67;99418.97;1478684;79;21654;-79
2022/07/09 04:42:49;;;;;;;14.87;5.62;;;;;;;13.69;87.71;99417.03;1477804;80;21020;-79
2022/07/09 04:44:50;;;;;;;13.25;4.70;;;;;;;13.73;87.76;99419.41;1478490;79;21004;-79
2022/07/09 04:46:51;;;;;;;;;;;;;;;13.78;87.74;99422.68;1480340;79;21091;-78
2022/07/09 04:48:52;;;;;;;7.58;4.65;;;;;;;13.82;87.76;99415.88;1478759;80;20275;-80
2022/07/09 04:50:53;;;;;;;;;;;;;;;13.83;87.72;99418.47;1481119;79;21866;-79
2022/07/09 04:52:54;;;;;;;14.85;4.12;;;;;;;13.86;87.73;99414.33;1478420;79;20129;-78
2022/07/09 04:54:56;;;;;;;12.30;4.35;;;;;;;13.88;87.71;99419.54;1477516;80;21068;-77
2022/07/09 04:56:57;;;;;;;13.65;4.35;;;;;;;13.92;87.69;99427.70;1478233;80;21137;-78
2022/07/09 04:59:00;;;;;;;20.08;4.15;;;;;;;13.94;87.66;99424.03;1478574;80;21031;-78
2022/07/09 05:01:01;;;;;;;7.53;4.08;;;;;;;13.95;87.54;99435.00;1478654;80;21372;-78
2022/07/09 05:03:02;;;;;;;17.70;5.25;;;;;;;13.95;87.49;99430.18;1468328;79;21563;-79
2022/07/09 05:05:06;;;;;;;9.05;4.65;;;;;;;13.95;87.48;99444.76;1478706;80;21071;-77
2022/07/09 05:07:07;;;;;;;12.33;3.87;;;;;;;13.95;87.47;99436.80;1479487;79;21034;-78
2022/07/09 05:09:08;;;;;;;;;;;;;;;13.95;87.45;99443.43;1481278;79;20996;-78
2022/07/09 05:11:12;;;;;;;18.27;4.60;;;;;;;13.95;87.46;99436.80;1478879;79;20157;-79
2022/07/09 05:13:13;;;;;;;12.55;4.58;;;;;;;13.91;87.46;99437.43;1478960;79;21548;-78
2022/07/09 05:15:14;;;;;;;11.60;4.85;;;;;;;13.94;87.48;99441.71;1477247;79;21024;-78
2022/07/09 05:17:15;;;;;;;9.18;4.60;;;;;;;13.94;87.54;99448.34;1477284;80;21654;-78
2022/07/09 05:19:16;;;;;;;14.55;5.78;;;;;;;13.96;87.56;99445.15;1466362;81;21019;-78
2022/07/09 05:21:17;;;;;;;12.93;5.15;;;;;;;13.98;87.53;99449.04;1478766;80;21481;-79
2022/07/09 05:23:18;;;;;;;16.85;5.45;;;;;;;14.01;87.57;99451.52;1478365;79;21024;-79
2022/07/09 05:25:19;;;;;;;16.90;5.20;;;;;;;14.05;87.66;99442.00;1477692;80;20984;-79
2022/07/09 05:27:20;;;;;;;11.80;5.03;;;;;;;14.13;87.68;99443.73;1478190;79;21044;-78
2022/07/09 05:29:24;;;;;;;11.73;5.10;;;;;;;14.20;87.70;99440.27;1477306;80;21650;-81
2022/07/09 05:31:25;;;;;;;12.10;4.78;;;;;;;14.31;87.78;99434.38;1459557;81;21003;-79
2022/07/09 05:33:26;;;;;;;13.83;4.95;;;;;;;14.41;87.78;99432.93;1476812;80;21012;-79
2022/07/09 05:35:27;;;;;;;;;;;;;;;14.52;87.79;99428.31;1477282;80;21067;-78
2022/07/09 05:37:28;;;;;;;8.30;5.03;;;;;;;14.61;87.75;99426.95;1476834;80;20137;-79
2022/07/09 05:39:29;;;;;;;18.67;4.70;;;;;;;14.67;87.73;99426.61;1477152;80;21019;-78
2022/07/09 05:41:30;;;;;;;;;;;;;;;14.75;87.64;99431.00;1481117;79;20957;-79
2022/07/09 05:43:31;;;;;;;11.85;4.28;;;;;;;14.78;87.54;99429.49;1477777;79;20125;-78
2022/07/09 05:45:31;;;;;;;;;;;;;;;14.79;87.39;99431.70;1480839;80;20975;-78
2022/07/09 05:47:32;;;;;;;12.37;4.57;;;;;;;14.79;87.35;99423.73;1477109;79;20429;-78
2022/07/09 05:49:33;;;;;;;22.27;4.78;;;;;;;14.81;87.36;99423.16;1478979;79;20969;-78
2022/07/09 05:51:34;;;;;;;;;;;;;;;14.78;87.22;99420.20;1479245;80;21124;-78
2022/07/09 05:53:35;;;;;;;20.30;5.92;;;;;;;14.86;87.29;99410.97;1475892;80;20952;-79
2022/07/09 05:55:36;;;;;;;;;;;;;;;14.93;87.30;99418.94;1481815;79;21000;-78
2022/07/09 05:57:37;;;;;;;15.60;4.70;;;;;;;15.02;87.39;99413.06;1478267;79;20132;-79
2022/07/09 05:59:38;;;;;;;12.18;4.05;;;;;;;15.24;87.57;99408.64;1477618;79;21047;-78
2022/07/09 06:01:41;;;;;;;;;;;;;;;15.24;87.57;99408.64;1480288;80;20992;-78
2022/07/09 06:03:42;;;;;;;9.93;4.20;;;;;;;15.36;87.44;99406.21;1474786;79;20413;-78
2022/07/09 06:05:44;;;;;;;15.35;4.62;;;;;;;15.55;87.07;99408.56;1476188;79;20957;-79
2022/07/09 06:07:45;;;;;;;12.07;3.95;;;;;;;15.61;87.00;99405.55;1476889;80;21286;-78
2022/07/09 06:09:46;;;;;;;12.43;2.87;;;;;;;15.61;87.00;99405.55;1478682;79;21392;-79
2022/07/09 06:11:47;;;;;;;14.20;3.20;;;;;;;15.67;86.97;99410.46;1476001;80;21032;-77
2022/07/09 06:13:48;;;;;;;;;;;;;;;15.72;86.92;99403.06;1441004;81;21104;-77
2022/07/09 06:15:50;;;;;;;7.37;2.87;;;;;;;15.77;86.84;99403.64;1477405;80;20139;-78
2022/07/09 06:17:53;;;;;;;11.18;2.12;;;;;;;15.85;86.68;99402.33;1478400;79;21044;-77
2022/07/09 06:19:54;;;;;;;5.92;1.90;;;;;;;15.85;86.68;99402.33;1478129;80;21720;-78
2022/07/09 06:21:54;;;;;;;;;;;;;;;15.87;86.52;99404.39;1480426;79;21151;-78
2022/07/09 06:23:55;;;;;;;3.15;1.62;;;;;;;15.87;86.51;99401.28;1477733;80;20161;-77
2022/07/09 06:25:56;;;;;;;;;;;;;;;15.83;86.27;99411.24;1467088;80;21659;-78
2022/07/09 06:27:57;;;;;;;8.23;2.35;;;;;;;15.80;86.25;99402.14;1476682;80;20156;-77
2022/07/09 06:30:01;;;;;;;6.80;2.90;;;;;;;15.73;86.02;99404.78;1476140;80;21004;-78
2022/07/09 06:32:03;;;;;;;14.13;3.10;;;;;;;15.71;86.15;99404.00;1464552;79;21065;-77
2022/07/09 06:34:04;;;;;;;6.47;2.77;;;;;;;15.70;86.24;99406.31;1476538;80;21000;-78
2022/07/09 06:36:04;;;;;;;;;;;;;;;15.68;86.21;99412.17;1479754;79;21500;-76
2022/07/09 06:38:06;;;;;;;13.58;3.02;;;;;;;15.64;86.15;99405.34;1477460;79;20197;-77
2022/07/09 06:40:08;;;;;;;7.12;2.55;;;;;;;15.57;86.06;99402.21;1478825;80;21016;-76
2022/07/09 06:42:09;;;;;;;8.18;3.02;;;;;;;15.52;86.01;99397.68;1477984;79;21500;-77
2022/07/09 06:44:10;;;;;;;4.55;2.25;;;;;;;15.49;86.13;99397.39;1477158;80;21161;-77
2022/07/09 06:46:11;;;;;;;;;;;;;;;15.46;86.24;99398.89;1480587;79;21071;-77
2022/07/09 06:48:12;;;;;;;9.83;2.45;;;;;;;15.45;86.23;99397.20;1476720;80;20138;-76
2022/07/09 06:50:13;;;;;;;;;;;;;;;15.43;86.27;99396.42;1478723;79;21058;-78
2022/07/09 06:52:14;;;;;;;14.00;2.22;;;;;;;15.40;86.33;99387.33;1476938;79;20481;-78
2022/07/09 06:54:14;;;;;;;;;;;;;;;15.48;86.38;99395.67;1462931;81;21091;-76
2022/07/09 06:56:15;;;;;;;4.35;1.87;;;;;;;15.55;86.42;99395.28;1476167;79;20153;-78
2022/07/09 06:58:16;;;;;;;2.87;1.60;;;;;;;15.62;86.52;99384.19;1477037;80;21663;-77
2022/07/09 07:00:17;;;;;;;;;;;;;;;15.73;86.54;99385.30;1476388;79;21080;-77
2022/07/09 07:02:18;;;;;;;7.60;1.50;;;;;;;15.83;86.58;99390.47;1476754;80;21036;-76
2022/07/09 07:04:20;;;;;;;4.60;1.95;;;;;;;15.93;86.47;99385.41;1477031;80;21004;-77
2022/07/09 07:06:21;;;;;;;1.82;1.55;;;;;;;15.98;86.26;99388.16;1476120;80;20953;-77
2022/07/09 07:08:22;;;;;;;;;;;;;;;16.05;86.30;99385.96;1480093;79;21012;-77
2022/07/09 07:10:25;;;;;;;5.95;1.85;;;;;;;16.08;86.26;99387.09;1477546;80;20560;-77
2022/07/09 07:12:28;;;;;;;9.03;2.20;;;;;;;16.10;86.23;99381.20;1474412;80;21020;-77
2022/07/09 07:14:28;;;;;;;;;;;;;;;16.12;86.22;99381.11;1473311;80;21021;-77
2022/07/09 07:16:31;;;;;;;5.35;1.90;;;;;;;16.15;86.23;99387.06;1471628;80;20153;-77
2022/07/09 07:18:32;;;;;;;2.08;1.50;;;;;;;16.17;86.16;99383.84;1471549;80;21043;-76
2022/07/09 07:20:33;;;;;;;;;;;;;;;16.17;86.05;99385.17;1446525;80;21044;-77
2022/07/09 07:22:34;;;;;;;7.62;1.72;;;;;;;16.21;86.17;99380.97;1476709;80;20464;-78
2022/07/09 07:24:36;;;;;;;6.67;1.70;;;;;;;16.24;86.17;99379.44;1501219;78;21141;-76
2022/07/09 07:26:37;;;;;;;7.37;2.00;;;;;;;16.26;86.11;99381.05;1503684;79;21095;-78
2022/07/09 07:28:37;;;;;;;;;;;;;;;16.28;86.01;99380.95;1476757;80;21452;-76
2022/07/09 07:30:39;;;;;;;6.35;1.80;;;;;;;16.26;85.85;99378.39;1471590;80;20144;-77
2022/07/09 07:32:40;;;;;;;8.40;2.02;;;;;;;16.27;86.04;99370.80;1472506;79;21473;-77
2022/07/09 07:34:41;;;;;;;18.75;2.10;;;;;;;16.30;86.00;99377.23;1474100;80;21063;-77
2022/07/09 07:36:41;;;;;;;;;;;;;;;16.34;86.02;99377.90;1470980;79;21579;-77
2022/07/09 07:38:44;;;;;;;10.43;2.50;;;;;;;16.38;86.12;99378.53;1470673;79;20094;-77
2022/07/09 07:40:46;;;;;;;6.03;2.45;;;;;;;16.40;86.12;99373.98;1475064;80;20949;-77
2022/07/09 07:42:47;;;;;;;8.58;2.60;;;;;;;16.45;86.22;99372.72;1475344;80;20949;-77
2022/07/09 07:44:47;;;;;;;;;;;;;;;16.50;86.08;99385.70;1479871;80;21504;-77
2022/07/09 07:46:48;;;;;;;8.10;2.60;;;;;;;16.54;86.10;99386.37;1504569;79;20124;-78
2022/07/09 07:48:50;;;;;;;;;;;;;;;16.54;85.99;99386.37;1504525;79;21031;-76
2022/07/09 07:50:51;;;;;;;21.02;3.35;;;;;;;16.54;86.02;99381.05;1503686;78;20515;-74
2022/07/09 07:52:52;;;;;;;;;;;;;;;16.55;86.04;99384.09;1475327;79;20973;-76
2022/07/09 07:54:53;;;;;;;8.95;3.60;;;;;;;16.58;85.85;99391.37;1471718;79;20178;-75
2022/07/09 07:56:53;;;;;;;;;;;;;;;16.60;85.48;99384.61;1474521;80;22196;-75
2022/07/09 07:58:54;;;;;;;13.62;4.22;;;;;;;16.62;85.18;99380.06;1474262;80;20125;-76
2022/07/09 08:00:58;;;;;;;;;;;;;;;16.62;84.90;99380.06;1476181;80;21051;-75
2022/07/09 08:02:58;;;;;;;12.53;3.92;;;;;;;16.62;84.44;99388.04;1472510;79;20160;-73
2022/07/09 08:04:59;;;;;;;;;;;;;;;16.62;84.33;99382.72;1479063;79;21558;-75
2022/07/09 08:07:00;;;;;;;;;;;;;;;16.70;84.32;99377.73;1476924;80;20149;-75
2022/07/09 08:09:08;;;;;;;8.90;4.40;;;;;;;16.83;84.29;99377.75;1475490;79;20154;-75
2022/07/09 08:11:11;;;;;;;10.15;4.00;;;;;;;16.95;84.11;99378.28;1464272;80;21662;-77
2022/07/09 08:13:12;;;;;;;9.00;4.28;;;;;;;17.06;83.90;99376.22;1501822;79;21094;-76
2022/07/09 08:15:14;;;;;;;13.90;4.22;;;;;;;17.14;83.73;99373.88;1479479;80;21119;-75
2022/07/09 08:17:15;;;;;;;10.50;3.60;;;;;;;17.23;83.54;99375.54;1480780;79;21102;-75
2022/07/09 08:19:16;;;;;;;9.90;4.30;;;;;;;17.29;83.17;99375.09;1483584;80;21602;-77
2022/07/09 08:21:18;;;;;;;8.58;3.08;;;;;;;17.34;83.18;99376.97;1482593;79;21027;-74
2022/07/09 08:23:19;;;;;;;8.30;3.40;;;;;;;17.39;82.97;99370.84;1481766;80;21047;-74
2022/07/09 08:25:20;;;;;;;9.15;3.45;;;;;;;17.44;82.90;99368.69;1482048;80;21023;-75
2022/07/09 08:27:21;;;;;;;11.70;3.30;;;;;;;17.51;82.74;99363.32;1482742;80;21016;-74
2022/07/09 08:29:22;;;;;;;5.50;3.20;;;;;;;17.56;82.62;99362.14;1481407;79;21071;-75
2022/07/09 08:31:23;;;;;;;8.68;3.62;;;;;;;17.65;82.63;99354.80;1483068;80;20992;-74
2022/07/09 08:33:24;;;;;;;10.82;3.33;;;;;;;17.76;82.63;99356.70;1480070;79;21000;-74
2022/07/09 08:35:26;;;;;;;9.63;3.70;;;;;;;17.86;82.55;99351.06;1480704;79;21000;-76
2022/07/09 08:37:27;;;;;;;10.50;3.72;;;;;;;17.97;82.52;99355.66;1469786;80;21022;-75
2022/07/09 08:39:28;;;;;;;11.38;3.70;;;;;;;18.06;82.43;99349.66;1482797;79;22183;-74
2022/07/09 08:41:29;;;;;;;8.50;4.87;;;;;;;18.14;82.36;99348.61;1482523;79;21114;-75
2022/07/09 08:43:33;;;;;;;10.68;3.52;;;;;;;18.21;82.18;99351.19;1483030;80;21512;-76
2022/07/09 08:45:36;;;;;;;15.63;3.60;;;;;;;18.18;81.79;99343.41;1481171;78;20988;-75
2022/07/09 08:47:39;;;;;;;8.73;4.15;;;;;;;18.20;81.93;99347.30;1481878;79;21772;-76
2022/07/09 08:49:41;;;;;;;6.92;3.05;;;;;;;18.25;82.02;99349.61;1483144;79;21586;-75
2022/07/09 08:51:44;;;;;;;9.23;3.33;;;;;;;18.31;82.02;99351.84;1480949;78;21004;-75
2022/07/09 08:53:45;;;;;;;11.43;3.20;;;;;;;18.34;81.67;99349.78;1481243;79;21591;-75
2022/07/09 08:55:48;;;;;;;4.90;2.50;;;;;;;18.35;81.60;99345.31;1471884;80;20992;-74
2022/07/09 08:57:51;;;;;;;9.78;3.15;;;;;;;18.27;81.11;99343.70;1482982;79;21159;-75
2022/07/09 08:59:51;;;;;;;8.40;3.37;;;;;;;18.25;81.41;99342.95;1482556;79;21542;-74
2022/07/09 09:01:53;;;;;;;11.48;3.95;;;;;;;18.30;81.53;99348.30;1465411;80;21055;-77
2022/07/09 09:03:54;;;;;;;8.53;3.25;;;;;;;18.46;81.62;99344.02;1480557;79;21015;-76
2022/07/09 09:06:08;;;;;;;7.53;3.22;;;;;;;18.65;81.53;99337.28;1468522;80;21031;-76
2022/07/09 09:08:26;;;;;;;14.15;2.52;;;;;;;18.88;81.61;99336.43;1498263;79;21008;-77
2022/07/09 09:10:28;;;;;;;5.72;2.55;;;;;;;19.13;81.25;99341.17;1482904;80;21044;-76
2022/07/09 09:12:29;;;;;;;13.88;2.75;;;;;;;19.32;80.91;99333.91;1481605;79;21026;-77
2022/07/09 09:14:30;;;;;;;10.32;2.40;;;;;;;19.37;80.60;99341.55;1465461;80;22004;-77
2022/07/09 09:16:31;;;;;;;8.00;2.65;;;;;;;19.40;80.11;99323.95;1477890;79;21051;-77
2022/07/09 09:18:39;;;;;;;9.13;2.80;;;;;;;19.45;80.22;99324.42;1474295;80;21003;-76
2022/07/09 09:20:45;;;;;;;7.10;2.47;;;;;;;19.49;80.13;99321.87;1476106;79;20956;-76
2022/07/09 09:22:59;;;;;;;5.97;2.90;;;;;;;19.50;79.57;99317.39;1455713;81;21008;-75
2022/07/09 09:24:58;;;;;;;4.28;2.10;;;;;;;19.41;78.74;99316.28;1474144;79;21012;-77
2022/07/09 09:27:00;;;;;;;5.75;2.55;;;;;;;19.34;79.28;99317.28;1477081;80;21496;-77
2022/07/09 09:29:04;;;;;;;10.08;2.70;;;;;;;19.30;78.91;99315.83;1476472;79;21244;-75
2022/07/09 09:31:08;;;;;;;12.00;2.65;;;;;;;19.20;78.38;99320.17;1477125;80;20996;-76
2022/07/09 09:33:15;;;;;;;2.85;2.52;;;;;;;19.15;79.09;99316.54;1474235;79;21063;-76
2022/07/09 09:35:16;;;;;;;5.42;3.30;;;;;;;19.21;79.17;99316.54;1461031;80;20953;-76
2022/07/09 09:37:29;;;;;;;6.35;2.60;;;;;;;19.28;79.28;99304.89;1472200;80;21060;-76
2022/07/09 09:39:30;;;;;;;3.72;2.90;;;;;;;19.36;79.14;99309.97;1476804;80;21020;-76